createdAt,value
2022-08-19T00:00:08.688Z,0.50
2022-08-19T00:02:37.086Z,0.20
2022-08-19T00:05:06.365Z,0.60
2022-08-19T00:07:34.759Z,0.82
2022-08-19T00:10:03.072Z,0.38
2022-08-19T00:12:31.446Z,0.32
2022-08-19T00:14:59.836Z,0.57
2022-08-19T00:17:29.607Z,0.13
2022-08-19T00:19:57.981Z,0.40
2022-08-19T00:22:28.018Z,0.35
2022-08-19T00:24:56.330Z,0.70
2022-08-19T00:27:26.937Z,0.30
2022-08-19T00:29:55.488Z,0.32
2022-08-19T00:32:24.007Z,0.43
2022-08-19T00:34:54.520Z,0.60
2022-08-19T00:37:24.029Z,0.60
2022-08-19T00:39:53.053Z,0.60
2022-08-19T00:42:21.977Z,0.45
2022-08-19T00:44:51.504Z,1.10
2022-08-19T00:47:20.758Z,0.88
2022-08-19T00:49:52.329Z,0.47
2022-08-19T00:52:25.476Z,0.73
2022-08-19T00:54:54.950Z,0.70
2022-08-19T00:57:27.202Z,1.33
2022-08-19T01:00:02.338Z,0.60
2022-08-19T01:02:32.610Z,0.45
2022-08-19T01:05:01.976Z,0.55
2022-08-19T01:07:35.707Z,0.80
2022-08-19T01:10:08.392Z,1.20
2022-08-19T01:12:37.235Z,0.40
2022-08-19T01:15:05.835Z,0.80
2022-08-19T01:17:34.317Z,1.30
2022-08-19T01:20:02.741Z,0.60
2022-08-19T01:22:34.013Z,0.80
2022-08-19T01:25:03.500Z,0.60
2022-08-19T01:27:43.172Z,0.98
2022-08-19T01:30:14.345Z,1.15
2022-08-19T01:32:44.169Z,1.05
2022-08-19T01:35:13.158Z,0.63
2022-08-19T01:37:46.615Z,0.75
2022-08-19T01:40:15.019Z,1.40
2022-08-19T01:42:43.590Z,1.10
2022-08-19T01:45:12.560Z,1.40
2022-08-19T01:47:40.851Z,1.00
2022-08-19T01:50:11.047Z,1.00
2022-08-19T01:52:39.571Z,0.90
2022-08-19T01:55:10.996Z,1.55
2022-08-19T01:57:40.099Z,0.93
2022-08-19T02:00:10.345Z,1.05
2022-08-19T02:02:38.988Z,1.00
2022-08-19T02:05:10.744Z,0.77
2022-08-19T02:07:41.373Z,0.68
2022-08-19T02:10:13.797Z,0.35
2022-08-19T02:12:45.133Z,1.35
2022-08-19T02:15:14.280Z,0.82
2022-08-19T02:17:42.805Z,0.80
2022-08-19T02:20:11.923Z,0.77
2022-08-19T02:22:42.358Z,0.85
2022-08-19T02:25:12.842Z,1.10
2022-08-19T02:27:41.937Z,0.98
2022-08-19T02:30:14.094Z,0.88
2022-08-19T02:32:54.523Z,0.93
2022-08-19T02:35:23.563Z,1.17
2022-08-19T02:38:09.522Z,0.88
2022-08-19T02:40:39.389Z,1.10
2022-08-19T02:43:09.482Z,0.90
2022-08-19T02:45:40.548Z,1.25
2022-08-19T02:48:21.261Z,0.90
2022-08-19T02:50:55.713Z,1.15
2022-08-19T02:53:24.310Z,0.60
2022-08-19T02:55:54.543Z,0.65
2022-08-19T02:58:27.613Z,1.02
2022-08-19T03:00:56.762Z,0.30
2022-08-19T03:03:25.541Z,1.15
2022-08-19T03:05:56.307Z,0.75
2022-08-19T03:08:26.835Z,0.63
2022-08-19T03:10:56.596Z,0.90
2022-08-19T03:13:25.398Z,0.45
2022-08-19T03:15:53.865Z,0.80
2022-08-19T03:18:23.325Z,0.85
2022-08-19T03:20:53.824Z,1.02
2022-08-19T03:23:22.327Z,1.92
2022-08-19T03:25:58.383Z,0.55
2022-08-19T03:28:41.391Z,0.30
2022-08-19T03:31:41.742Z,0.63
2022-08-19T03:33:59.090Z,0.80
2022-08-19T03:36:29.677Z,0.73
2022-08-19T03:39:01.904Z,1.05
2022-08-19T03:41:43.250Z,0.93
2022-08-19T03:44:16.913Z,0.63
2022-08-19T03:46:47.531Z,0.88
2022-08-19T03:49:15.944Z,0.70
2022-08-19T03:51:46.929Z,0.65
2022-08-19T03:54:16.081Z,0.80
2022-08-19T03:56:44.949Z,0.50
2022-08-19T03:59:14.351Z,0.50
2022-08-19T04:01:44.339Z,0.63
2022-08-19T04:04:13.191Z,0.68
2022-08-19T04:06:42.231Z,0.32
2022-08-19T04:09:11.491Z,1.00
2022-08-19T04:11:43.951Z,0.60
2022-08-19T04:14:13.738Z,0.98
2022-08-19T04:16:42.086Z,0.70
2022-08-19T04:19:11.897Z,0.93
2022-08-19T04:21:40.280Z,0.82
2022-08-19T04:24:09.161Z,1.25
2022-08-19T04:26:38.619Z,0.68
2022-08-19T04:29:12.182Z,0.75
2022-08-19T04:31:41.907Z,0.93
2022-08-19T04:34:12.801Z,0.68
2022-08-19T04:36:42.613Z,0.73
2022-08-19T04:39:12.109Z,0.93
2022-08-19T04:41:58.205Z,0.95
2022-08-19T04:44:26.615Z,1.25
2022-08-19T04:46:55.622Z,1.20
2022-08-19T04:49:25.475Z,0.65
2022-08-19T04:51:55.261Z,0.82
2022-08-19T04:54:38.669Z,0.70
2022-08-19T04:57:08.422Z,0.85
2022-08-19T04:59:37.177Z,1.17
2022-08-19T05:02:05.599Z,1.15
2022-08-19T05:04:36.237Z,0.93
2022-08-19T05:07:04.660Z,1.02
2022-08-19T05:09:56.552Z,1.20
2022-08-19T05:12:21.614Z,0.60
2022-08-19T05:14:55.425Z,0.93
2022-08-19T05:17:27.598Z,0.95
2022-08-19T05:20:15.813Z,0.90
2022-08-19T05:22:44.671Z,1.08
2022-08-19T05:25:14.111Z,0.98
2022-08-19T05:27:42.731Z,0.93
2022-08-19T05:30:11.914Z,0.80
2022-08-19T05:32:40.323Z,0.95
2022-08-19T05:35:11.542Z,0.85
2022-08-19T05:37:41.178Z,1.05
2022-08-19T05:40:10.774Z,1.33
2022-08-19T05:42:39.190Z,1.02
2022-08-19T05:45:08.020Z,0.73
2022-08-19T05:47:36.578Z,0.98
2022-08-19T05:50:12.104Z,1.05
2022-08-19T05:52:43.570Z,1.30
2022-08-19T05:55:14.509Z,0.77
2022-08-19T05:57:42.939Z,1.08
2022-08-19T06:00:12.501Z,0.60
2022-08-19T06:02:41.408Z,1.15
2022-08-19T06:05:10.779Z,1.40
2022-08-19T06:07:41.296Z,0.90
2022-08-19T06:10:10.800Z,0.90
2022-08-19T06:12:39.936Z,0.90
2022-08-19T06:15:09.944Z,1.13
2022-08-19T06:17:38.316Z,1.65
2022-08-19T06:20:07.051Z,1.15
2022-08-19T06:22:39.738Z,1.30
2022-08-19T06:25:10.249Z,1.30
2022-08-19T06:27:45.047Z,0.90
2022-08-19T06:30:21.694Z,0.90
2022-08-19T06:32:50.061Z,1.50
2022-08-19T06:35:20.008Z,1.25
2022-08-19T06:37:48.465Z,1.77
2022-08-19T06:40:18.240Z,1.08
2022-08-19T06:42:54.475Z,1.30
2022-08-19T06:45:25.109Z,0.63
2022-08-19T06:48:02.241Z,1.10
2022-08-19T06:50:31.651Z,0.95
2022-08-19T06:53:01.489Z,0.90
2022-08-19T06:55:34.265Z,1.17
2022-08-19T06:58:05.100Z,1.55
2022-08-19T07:00:33.594Z,1.17
2022-08-19T07:03:06.126Z,1.38
2022-08-19T07:05:40.394Z,2.10
2022-08-19T07:08:13.698Z,1.67
2022-08-19T07:10:46.766Z,1.85
2022-08-19T07:13:15.238Z,1.52
2022-08-19T07:15:43.753Z,1.55
2022-08-19T07:18:12.210Z,1.05
2022-08-19T07:20:42.070Z,1.65
2022-08-19T07:23:16.245Z,1.58
2022-08-19T07:25:51.387Z,1.58
2022-08-19T07:28:23.939Z,1.85
2022-08-19T07:30:53.083Z,2.03
2022-08-19T07:33:21.691Z,1.65
2022-08-19T07:35:50.801Z,1.58
2022-08-19T07:38:19.312Z,2.67
2022-08-19T07:40:49.057Z,2.45
2022-08-19T07:43:23.710Z,1.98
2022-08-19T07:45:52.082Z,3.17
2022-08-19T07:48:20.777Z,2.20
2022-08-19T07:50:49.419Z,2.25
2022-08-19T07:53:17.798Z,2.70
2022-08-19T07:55:46.392Z,2.10
2022-08-19T07:58:18.919Z,3.22
2022-08-19T08:00:48.089Z,2.42
2022-08-19T08:03:17.358Z,1.60
2022-08-19T08:06:10.941Z,3.10
2022-08-19T08:08:57.175Z,3.85
2022-08-19T08:11:27.142Z,2.20
2022-08-19T08:14:00.494Z,3.03
2022-08-19T08:16:32.163Z,2.20
2022-08-19T08:19:01.423Z,2.67
2022-08-19T08:21:29.911Z,2.63
2022-08-19T08:26:31.658Z,2.17
2022-08-19T08:29:12.417Z,3.15
2022-08-19T08:31:42.721Z,2.30
2022-08-19T08:34:11.156Z,2.88
2022-08-19T08:36:42.618Z,3.03
2022-08-19T08:39:11.508Z,3.00
2022-08-19T08:41:43.147Z,3.42
2022-08-19T08:44:17.263Z,2.75
2022-08-19T08:46:49.893Z,2.80
2022-08-19T08:49:26.571Z,2.35
2022-08-19T08:52:00.371Z,3.47
2022-08-19T08:54:32.316Z,2.10
2022-08-19T08:57:03.491Z,2.10
2022-08-19T08:59:36.483Z,3.60
2022-08-19T09:02:05.206Z,2.78
2022-08-19T09:04:34.021Z,2.30
2022-08-19T09:07:18.457Z,2.47
2022-08-19T09:12:28.821Z,3.35
2022-08-19T09:15:01.586Z,2.60
2022-08-19T09:17:36.175Z,2.67
2022-08-19T09:20:09.966Z,2.90
2022-08-19T09:22:39.676Z,2.60
2022-08-19T09:25:10.157Z,2.70
2022-08-19T09:27:41.896Z,2.50
2022-08-19T09:30:16.038Z,3.70
2022-08-19T09:32:45.256Z,2.85
2022-08-19T09:35:15.233Z,2.22
2022-08-19T09:37:45.120Z,3.22
2022-08-19T09:40:15.605Z,2.72
2022-08-19T09:42:50.285Z,2.38
2022-08-19T09:45:23.766Z,2.42
2022-08-19T09:47:54.813Z,2.58
2022-08-19T09:50:25.008Z,2.78
2022-08-19T09:52:58.723Z,2.40
2022-08-19T09:55:31.857Z,2.53
2022-08-19T09:58:02.241Z,2.60
2022-08-19T10:00:32.992Z,2.25
2022-08-19T10:03:01.505Z,2.58
2022-08-19T10:05:50.557Z,2.85
2022-08-19T10:08:26.576Z,2.60
2022-08-19T10:10:55.918Z,2.53
2022-08-19T10:13:27.098Z,2.70
2022-08-19T10:15:58.082Z,3.70
2022-08-19T10:18:27.328Z,3.00
2022-08-19T10:21:12.180Z,2.78
2022-08-19T10:23:41.024Z,2.83
2022-08-19T10:26:10.024Z,3.08
2022-08-19T10:28:39.215Z,2.80
2022-08-19T10:31:15.826Z,2.97
2022-08-19T10:33:53.892Z,2.30
2022-08-19T10:36:23.508Z,2.80
2022-08-19T10:38:56.627Z,2.80
2022-08-19T10:41:26.229Z,2.33
2022-08-19T10:43:55.396Z,2.35
2022-08-19T10:46:26.239Z,2.97
2022-08-19T10:48:55.424Z,1.98
2022-08-19T10:51:46.512Z,1.67
2022-08-19T10:54:16.674Z,2.53
2022-08-19T10:56:53.131Z,2.78
2022-08-19T10:59:22.524Z,1.55
2022-08-19T11:01:57.643Z,1.63
2022-08-19T11:04:28.826Z,2.10
2022-08-19T11:06:58.738Z,2.17
2022-08-19T11:09:33.876Z,1.65
2022-08-19T11:12:04.850Z,1.92
2022-08-19T11:14:34.933Z,2.08
2022-08-19T11:17:05.431Z,1.35
2022-08-19T11:19:34.146Z,2.55
2022-08-19T11:22:03.958Z,1.45
2022-08-19T11:24:33.700Z,2.40
2022-08-19T11:27:06.428Z,2.08
2022-08-19T11:29:35.428Z,1.83
2022-08-19T11:32:07.990Z,1.90
2022-08-19T11:34:36.441Z,1.45
2022-08-19T11:37:06.698Z,2.28
2022-08-19T11:39:36.402Z,1.35
2022-08-19T11:42:25.033Z,1.25
2022-08-19T11:44:53.887Z,0.80
2022-08-19T11:47:24.361Z,1.00
2022-08-19T11:49:54.081Z,1.00
2022-08-19T11:52:22.519Z,0.80
2022-08-19T11:54:51.007Z,0.70
2022-08-19T11:57:20.857Z,0.43
2022-08-19T11:59:52.577Z,0.30
2022-08-19T12:02:21.204Z,0.45
2022-08-19T12:04:51.462Z,0.40
2022-08-19T12:07:20.203Z,0.55
2022-08-19T12:09:48.865Z,0.40
2022-08-19T12:12:17.401Z,0.32
2022-08-19T12:14:47.386Z,0.25
2022-08-19T12:17:16.253Z,0.20
2022-08-19T12:19:45.424Z,0.30
2022-08-19T12:22:15.207Z,0.60
2022-08-19T12:24:43.648Z,0.43
2022-08-19T12:27:12.735Z,0.40
2022-08-19T12:29:42.715Z,0.43
2022-08-19T12:32:12.085Z,0.45
2022-08-19T12:34:41.473Z,0.22
2022-08-19T12:37:10.460Z,0.32
2022-08-19T12:39:42.433Z,0.17
2022-08-19T12:42:11.359Z,0.30
2022-08-19T12:44:41.663Z,0.63
2022-08-19T12:47:11.393Z,0.30
2022-08-19T12:49:53.388Z,0.95
2022-08-19T12:52:24.339Z,0.40
2022-08-19T12:54:55.393Z,0.30
2022-08-19T12:57:24.466Z,0.10
2022-08-19T13:00:01.081Z,0.10
2022-08-19T13:02:29.558Z,0.20
2022-08-19T13:04:58.739Z,0.13
2022-08-19T13:07:27.398Z,0.10
2022-08-19T13:09:58.021Z,0.22
2022-08-19T13:12:27.586Z,0.13
2022-08-19T13:14:56.275Z,0.28
2022-08-19T13:17:25.401Z,0.38
2022-08-19T13:19:54.122Z,0.30
2022-08-19T13:22:23.008Z,0.38
2022-08-19T13:24:51.833Z,0.57
2022-08-19T13:27:21.916Z,0.10
2022-08-19T13:30:07.869Z,0.32
2022-08-19T13:32:54.131Z,0.32
2022-08-19T13:35:22.731Z,0.70
2022-08-19T13:37:51.388Z,0.25
2022-08-19T13:40:22.742Z,0.10
2022-08-19T13:42:53.853Z,0.38
2022-08-19T13:45:23.942Z,0.40
2022-08-19T13:47:57.092Z,0.28
2022-08-19T13:50:30.056Z,0.40
2022-08-19T13:52:58.939Z,0.30
2022-08-19T13:55:27.873Z,0.35
2022-08-19T13:57:59.228Z,0.30
2022-08-19T14:00:28.699Z,0.38
2022-08-19T14:02:58.468Z,0.45
2022-08-19T14:05:27.845Z,0.75
2022-08-19T14:07:56.940Z,0.50
2022-08-19T14:10:25.910Z,0.47
2022-08-19T14:12:56.773Z,0.50
2022-08-19T14:15:27.441Z,0.63
2022-08-19T14:17:56.559Z,0.40
2022-08-19T14:20:26.287Z,0.45
2022-08-19T14:22:55.629Z,1.00
2022-08-19T14:25:24.957Z,0.50
2022-08-19T14:27:53.978Z,0.65
2022-08-19T14:30:24.278Z,0.63
2022-08-19T14:32:55.139Z,0.60
2022-08-19T14:35:24.705Z,0.60
2022-08-19T14:37:56.440Z,0.40
2022-08-19T14:40:27.075Z,0.70
2022-08-19T14:43:00.475Z,0.70
2022-08-19T14:45:29.748Z,0.82
2022-08-19T14:48:00.354Z,0.57
2022-08-19T14:50:29.117Z,0.65
2022-08-19T14:53:03.593Z,0.70
2022-08-19T14:55:35.466Z,0.60
2022-08-19T14:58:05.008Z,0.50
2022-08-19T15:00:37.154Z,0.40
2022-08-19T15:03:06.957Z,0.52
2022-08-19T15:05:36.737Z,0.73
2022-08-19T15:08:05.922Z,0.70
2022-08-19T15:10:34.444Z,0.65
2022-08-19T15:13:03.135Z,1.02
2022-08-19T15:15:31.537Z,0.75
2022-08-19T15:18:03.465Z,0.73
2022-08-19T15:20:33.616Z,0.70
2022-08-19T15:23:02.394Z,0.93
2022-08-19T15:25:30.860Z,1.27
2022-08-19T15:28:01.816Z,0.88
2022-08-19T15:30:30.642Z,1.27
2022-08-19T15:33:00.174Z,1.30
2022-08-19T15:35:29.164Z,1.48
2022-08-19T15:37:59.278Z,0.90
2022-08-19T15:40:29.297Z,1.42
2022-08-19T15:42:58.768Z,1.45
2022-08-19T15:45:32.968Z,1.13
2022-08-19T15:48:01.577Z,1.02
2022-08-19T15:50:31.933Z,0.82
2022-08-19T15:53:03.315Z,1.17
2022-08-19T15:55:34.862Z,0.70
2022-08-19T15:58:28.012Z,1.25
2022-08-19T16:01:15.465Z,1.05
2022-08-19T16:04:02.218Z,1.10
2022-08-19T16:06:31.470Z,1.00
2022-08-19T16:09:02.988Z,1.02
2022-08-19T16:11:32.180Z,1.33
2022-08-19T16:14:01.147Z,1.17
2022-08-19T16:16:33.838Z,1.40
2022-08-19T16:19:03.675Z,1.13
2022-08-19T16:21:33.318Z,1.23
2022-08-19T16:24:04.199Z,1.23
2022-08-19T16:26:32.609Z,0.65
2022-08-19T16:29:01.167Z,0.63
2022-08-19T16:31:30.409Z,0.93
2022-08-19T16:33:58.760Z,1.38
2022-08-19T16:36:27.137Z,0.95
2022-08-19T16:38:57.052Z,1.10
2022-08-19T16:41:27.967Z,0.80
2022-08-19T16:43:56.658Z,0.88
2022-08-19T16:46:27.077Z,0.88
2022-08-19T16:48:56.077Z,1.00
2022-08-19T16:51:24.412Z,1.10
2022-08-19T16:53:53.234Z,1.33
2022-08-19T16:56:21.654Z,0.93
2022-08-19T16:58:51.431Z,0.85
2022-08-19T17:01:20.122Z,1.08
2022-08-19T17:03:51.513Z,0.90
2022-08-19T17:06:21.401Z,1.20
2022-08-19T17:08:50.544Z,1.00
2022-08-19T17:11:19.711Z,0.85
2022-08-19T17:13:49.414Z,0.82
2022-08-19T17:16:19.894Z,0.90
2022-08-19T17:18:52.226Z,0.80
2022-08-19T17:21:20.665Z,1.02
2022-08-19T17:23:49.204Z,0.90
2022-08-19T17:26:18.783Z,0.50
2022-08-19T17:28:49.615Z,1.00
2022-08-19T17:31:20.359Z,0.85
2022-08-19T17:33:49.183Z,0.52
2022-08-19T17:36:18.198Z,0.88
2022-08-19T17:38:46.794Z,0.65
2022-08-19T17:41:15.166Z,0.77
2022-08-19T17:43:44.172Z,1.38
2022-08-19T17:46:18.078Z,0.60
2022-08-19T17:48:52.203Z,0.33
2022-08-19T17:51:22.280Z,0.60
2022-08-19T17:53:51.714Z,0.65
2022-08-19T17:56:20.459Z,0.38
2022-08-19T17:58:57.847Z,0.60
2022-08-19T18:01:39.033Z,0.70
2022-08-19T18:04:18.777Z,0.20
2022-08-19T18:06:53.588Z,0.55
2022-08-19T18:09:24.212Z,0.45
2022-08-19T18:11:53.682Z,0.30
2022-08-19T18:14:28.075Z,0.50
2022-08-19T18:17:01.229Z,0.60
2022-08-19T18:19:41.066Z,0.45
2022-08-19T18:22:10.419Z,0.45
2022-08-19T18:24:39.542Z,0.60
2022-08-19T18:27:08.066Z,1.15
2022-08-19T18:29:38.533Z,0.50
2022-08-19T18:32:09.150Z,1.83
2022-08-19T18:34:39.084Z,1.55
2022-08-19T18:37:07.503Z,0.88
2022-08-19T18:39:53.436Z,0.60
2022-08-19T18:42:39.606Z,0.63
2022-08-19T18:45:26.464Z,0.50
2022-08-19T18:48:26.726Z,0.70
2022-08-19T18:50:59.010Z,0.40
2022-08-19T18:53:28.687Z,0.45
2022-08-19T18:55:57.510Z,0.22
2022-08-19T18:58:28.218Z,0.73
2022-08-19T19:00:57.733Z,0.70
2022-08-19T19:03:26.756Z,0.82
2022-08-19T19:05:55.598Z,0.45
2022-08-19T19:08:27.032Z,1.17
2022-08-19T19:10:55.777Z,1.58
2022-08-19T19:13:24.241Z,1.95
2022-08-19T19:15:54.395Z,1.17
2022-08-19T19:18:23.121Z,1.58
2022-08-19T19:20:51.539Z,1.08
2022-08-19T19:23:20.583Z,0.85
2022-08-19T19:25:51.361Z,0.98
2022-08-19T19:28:23.885Z,0.82
2022-08-19T19:30:52.412Z,1.05
2022-08-19T19:33:21.325Z,1.33
2022-08-19T19:35:49.704Z,0.95
2022-08-19T19:38:18.042Z,0.75
2022-08-19T19:40:46.650Z,1.63
2022-08-19T19:43:18.458Z,0.82
2022-08-19T19:45:49.020Z,1.33
2022-08-19T19:48:17.489Z,0.95
2022-08-19T19:50:46.823Z,1.00
2022-08-19T19:53:22.597Z,1.23
2022-08-19T19:55:54.726Z,1.30
2022-08-19T19:58:28.748Z,1.02
2022-08-19T20:00:57.854Z,1.10
2022-08-19T20:03:26.265Z,1.13
2022-08-19T20:05:54.849Z,1.10
2022-08-19T20:08:40.988Z,1.27
2022-08-19T20:11:17.848Z,0.82
2022-08-19T20:13:47.925Z,0.82
2022-08-19T20:16:17.903Z,2.00
2022-08-19T20:18:47.207Z,1.10
2022-08-19T20:21:15.629Z,11.77
2022-08-19T20:24:08.659Z,1.70
2022-08-19T20:26:35.161Z,1.90
2022-08-19T20:29:13.646Z,1.10
2022-08-19T20:31:57.889Z,1.10
2022-08-19T20:34:27.791Z,1.83
2022-08-19T20:36:56.111Z,1.70
2022-08-19T20:39:24.510Z,2.15
2022-08-19T20:41:52.852Z,0.75
2022-08-19T20:44:25.341Z,1.52
2022-08-19T20:46:55.644Z,2.65
2022-08-19T20:49:27.273Z,1.88
2022-08-19T20:51:56.022Z,1.50
2022-08-19T20:54:24.432Z,1.85
2022-08-19T20:56:52.974Z,0.73
2022-08-19T20:59:23.161Z,0.80
2022-08-19T21:01:52.259Z,0.82
2022-08-19T21:04:21.278Z,0.63
2022-08-19T21:06:49.870Z,0.82
2022-08-19T21:09:18.602Z,1.00
2022-08-19T21:11:46.977Z,0.63
2022-08-19T21:14:15.412Z,1.13
2022-08-19T21:16:45.168Z,0.43
2022-08-19T21:19:13.699Z,0.70
2022-08-19T21:21:42.097Z,0.52
2022-08-19T21:24:10.550Z,0.70
2022-08-19T21:26:38.830Z,0.70
2022-08-19T21:29:07.921Z,1.33
2022-08-19T21:31:36.318Z,0.93
2022-08-19T21:34:06.126Z,0.95
2022-08-19T21:36:34.604Z,0.93
2022-08-19T21:39:03.193Z,0.95
2022-08-19T21:41:32.019Z,0.65
2022-08-19T21:44:00.363Z,0.98
2022-08-19T21:46:28.988Z,1.17
2022-08-19T21:48:57.337Z,0.70
2022-08-19T21:51:27.383Z,0.75
2022-08-19T21:53:55.731Z,1.05
2022-08-19T21:56:24.427Z,1.10
2022-08-19T21:58:55.584Z,0.93
2022-08-19T22:01:24.069Z,0.50
2022-08-19T22:03:52.544Z,0.50
2022-08-19T22:06:21.844Z,0.63
2022-08-19T22:08:51.679Z,0.80
2022-08-19T22:11:20.080Z,0.85
2022-08-19T22:13:48.470Z,0.65
2022-08-19T22:16:18.132Z,0.82
2022-08-19T22:18:47.036Z,0.95
2022-08-19T22:21:29.367Z,0.60
2022-08-19T22:24:09.933Z,0.95
2022-08-19T22:26:38.319Z,0.80
2022-08-19T22:29:07.645Z,1.40
2022-08-19T22:31:37.544Z,0.90
2022-08-19T22:34:06.999Z,1.00
2022-08-19T22:36:35.512Z,0.93
2022-08-19T22:39:04.780Z,1.50
2022-08-19T22:41:34.616Z,1.08
2022-08-19T22:44:03.835Z,1.35
2022-08-19T22:46:33.622Z,1.25
2022-08-19T22:49:02.057Z,1.45
2022-08-19T22:51:47.889Z,1.08
2022-08-19T22:54:16.626Z,1.90
2022-08-19T22:56:46.370Z,0.80
2022-08-19T22:59:14.751Z,2.05
2022-08-19T23:01:43.151Z,1.15
2022-08-19T23:04:11.811Z,1.52
2022-08-19T23:06:42.011Z,1.35
2022-08-19T23:09:10.896Z,1.13
2022-08-19T23:11:46.660Z,0.68
2022-08-19T23:14:15.601Z,1.25
2022-08-19T23:16:50.459Z,1.60
2022-08-19T23:19:19.563Z,1.23
2022-08-19T23:21:47.904Z,1.42
2022-08-19T23:24:16.470Z,1.00
2022-08-19T23:27:00.197Z,1.42
2022-08-19T23:29:47.337Z,1.20
2022-08-19T23:32:17.034Z,0.85
2022-08-19T23:34:45.643Z,0.80
2022-08-19T23:37:14.427Z,1.27
2022-08-19T23:39:43.572Z,1.02
2022-08-19T23:42:15.238Z,1.45
2022-08-19T23:44:52.267Z,1.40
2022-08-19T23:47:21.849Z,1.10
2022-08-19T23:49:50.814Z,1.10
2022-08-19T23:52:19.318Z,0.77
2022-08-19T23:54:47.802Z,1.33
2022-08-19T23:57:17.576Z,1.67
2022-08-19T23:59:46.214Z,0.73
